Time;durP1;ratioP1;P1;durP2;ratioP2;P2;SDS_P1;SDS_P2;PMS_P1;PMS_P2;Temp;Humidity;BMP_temperature;BMP_pressure;BME280_temperature;BME280_humidity;BME280_pressure;Samples;Min_cycle;Max_cycle;Signal;HPM_P1;HPM_P2
2022/05/23 00:02:00;;;;;;;1.42;1.33;;;10.70;99.90;;;;;;7376836;19;20733;-71
2022/05/23 00:04:26;;;;;;;1.65;1.55;;;10.70;99.90;;;;;;7377467;19;20667;-72
2022/05/23 00:06:51;;;;;;;2.10;1.60;;;10.70;99.90;;;;;;7376143;19;20333;-71
2022/05/23 00:09:17;;;;;;;3.50;2.50;;;10.70;99.90;;;;;;7378107;19;20420;-70
2022/05/23 00:11:43;;;;;;;3.17;2.37;;;10.60;99.90;;;;;;7378502;19;21250;-72
2022/05/23 00:14:08;;;;;;;2.60;2.40;;;10.60;99.90;;;;;;7378865;19;20351;-71
2022/05/23 00:16:37;;;;;;;2.80;2.27;;;10.60;99.90;;;;;;7374018;19;20352;-71
2022/05/23 00:19:03;;;;;;;3.00;2.70;;;10.70;99.90;;;;;;7380745;19;20356;-71
2022/05/23 00:21:28;;;;;;;3.15;2.15;;;10.70;99.90;;;;;;7380356;19;20348;-71
2022/05/23 00:23:54;;;;;;;2.33;1.97;;;10.70;99.90;;;;;;7379507;19;20348;-72
2022/05/23 00:26:20;;;;;;;2.80;2.00;;;10.70;99.90;;;;;;7372899;19;20320;-71
2022/05/23 00:28:46;;;;;;;1.92;1.83;;;10.70;99.90;;;;;;7374903;19;20345;-71
2022/05/23 00:31:12;;;;;;;1.88;1.77;;;10.70;99.90;;;;;;7371641;19;20348;-71
2022/05/23 00:36:30;;;;;;;1.83;1.73;;;10.70;99.90;;;;;;7270685;19;2004318;-71
2022/05/23 00:38:56;;;;;;;2.15;1.75;;;10.70;99.90;;;;;;7272720;19;2004382;-71
2022/05/23 00:44:33;;;;;;;2.25;2.00;;;10.70;99.90;;;;;;7272028;19;2004767;-71
2022/05/23 00:47:15;;;;;;;2.92;2.00;;;10.70;99.90;;;;;;7374851;19;20365;-71
2022/05/23 00:49:41;;;;;;;2.17;1.97;;;10.70;99.90;;;;;;7377169;19;20381;-71
2022/05/23 00:52:07;;;;;;;2.30;2.10;;;10.80;99.90;;;;;;7375828;19;20344;-71
2022/05/23 00:54:37;;;;;;;2.00;1.70;;;10.70;99.90;;;;;;7375337;19;20453;-73
2022/05/23 00:57:03;;;;;;;2.40;2.20;;;10.60;99.90;;;;;;7375539;19;20364;-74
2022/05/23 00:59:30;;;;;;;1.92;1.83;;;10.60;99.90;;;;;;7377089;19;20324;-71
2022/05/23 01:01:57;;;;;;;3.33;2.10;;;10.50;99.90;;;;;;7375958;19;20329;-71
2022/05/23 01:04:33;;;;;;;1.70;1.60;;;10.50;99.90;;;;;;7373808;19;21233;-72
2022/05/23 01:06:59;;;;;;;2.00;1.80;;;10.50;99.90;;;;;;7374408;19;20328;-75
2022/05/23 01:09:26;;;;;;;2.00;1.80;;;10.40;99.90;;;;;;7376878;19;20335;-72
2022/05/23 01:11:54;;;;;;;1.80;1.70;;;10.50;99.90;;;;;;7371944;19;21009;-74
2022/05/23 01:14:20;;;;;;;2.05;1.80;;;10.40;99.90;;;;;;7373839;19;20337;-73
2022/05/23 01:16:46;;;;;;;2.70;2.30;;;10.40;99.90;;;;;;7374111;19;20364;-74
2022/05/23 01:19:12;;;;;;;1.60;1.50;;;10.40;99.90;;;;;;7376696;19;20999;-76
2022/05/23 01:21:44;;;;;;;1.88;1.70;;;10.40;99.90;;;;;;7374501;19;20344;-72
2022/05/23 01:24:36;;;;;;;1.83;1.73;;;10.30;99.90;;;;;;7376118;19;20361;-73
2022/05/23 01:27:02;;;;;;;3.10;2.33;;;10.30;99.90;;;;;;7272697;19;2004377;-72
2022/05/23 01:29:35;;;;;;;3.67;2.30;;;10.30;99.90;;;;;;7377372;19;20349;-74
2022/05/23 01:32:08;;;;;;;2.42;2.15;;;10.30;99.90;;;;;;7373592;19;20352;-72
2022/05/23 01:34:35;;;;;;;2.83;1.83;;;10.20;99.90;;;;;;7373749;19;20361;-72
2022/05/23 01:37:07;;;;;;;1.90;1.80;;;10.20;99.90;;;;;;7373009;19;20358;-72
2022/05/23 01:39:38;;;;;;;1.90;1.80;;;10.20;99.90;;;;;;7375224;19;20862;-72
2022/05/23 01:42:04;;;;;;;3.25;2.38;;;10.20;99.90;;;;;;7373896;19;20340;-74
2022/05/23 01:44:30;;;;;;;2.03;1.83;;;10.20;99.90;;;;;;7373593;19;20342;-73
2022/05/23 01:47:17;;;;;;;2.28;2.08;;;10.20;99.90;;;;;;7272744;19;2004393;-73
2022/05/23 01:49:54;;;;;;;3.38;2.90;;;10.20;99.90;;;;;;7274145;19;2004713;-71
2022/05/23 01:52:46;;;;;;;2.15;1.95;;;10.10;99.90;;;;;;7370742;19;21194;-72
2022/05/23 01:55:27;;;;;;;2.72;2.53;;;10.00;99.90;;;;;;7370598;19;20344;-72
2022/05/23 01:58:10;;;;;;;2.60;2.10;;;10.00;99.90;;;;;;7376065;19;20344;-72
2022/05/23 02:03:24;;;;;;;1.83;1.73;;;9.90;99.90;;;;;;7374942;19;20364;-72
2022/05/23 02:05:53;;;;;;;2.33;2.13;;;9.80;99.90;;;;;;7367513;19;20804;-75
2022/05/23 02:08:20;;;;;;;2.47;2.28;;;9.80;99.90;;;;;;7375328;19;20346;-74
2022/05/23 02:10:46;;;;;;;6.05;4.10;;;9.80;99.90;;;;;;7373879;19;20385;-74
2022/05/23 02:13:18;;;;;;;3.00;2.58;;;9.80;99.90;;;;;;7375016;19;20420;-71
2022/05/23 02:15:44;;;;;;;2.63;2.42;;;9.80;99.90;;;;;;7370989;19;20408;-73
2022/05/23 02:18:28;;;;;;;2.60;2.40;;;9.70;99.90;;;;;;7376906;19;20453;-73
2022/05/23 02:20:54;;;;;;;2.60;2.40;;;9.70;99.90;;;;;;7374562;19;20900;-73
2022/05/23 02:23:19;;;;;;;2.72;2.53;;;9.70;99.90;;;;;;7378707;19;20801;-73
2022/05/23 02:25:45;;;;;;;2.80;2.23;;;9.70;99.90;;;;;;7372249;19;20669;-74
2022/05/23 02:28:34;;;;;;;2.20;2.00;;;9.70;99.90;;;;;;7375315;19;20831;-72
2022/05/23 02:30:59;;;;;;;2.53;2.33;;;9.70;99.90;;;;;;7372201;19;20340;-74
2022/05/23 02:33:41;;;;;;;2.40;2.20;;;9.70;99.90;;;;;;7376170;19;20349;-72
2022/05/23 02:36:22;;;;;;;2.20;2.00;;;9.60;99.90;;;;;;7372261;19;20416;-72
2022/05/23 02:38:48;;;;;;;2.17;1.97;;;9.60;99.90;;;;;;7373659;19;20439;-72
2022/05/23 02:41:13;;;;;;;3.10;2.20;;;9.50;99.90;;;;;;7373989;19;20880;-73
2022/05/23 02:43:39;;;;;;;2.07;1.97;;;9.50;99.90;;;;;;7378635;19;20350;-72
2022/05/23 02:46:06;;;;;;;2.30;2.10;;;9.50;99.90;;;;;;7376253;19;20339;-72
2022/05/23 02:48:33;;;;;;;2.35;2.17;;;9.50;99.90;;;;;;7381659;19;20378;-72
2022/05/23 02:51:04;;;;;;;2.40;2.00;;;9.40;99.90;;;;;;7380672;19;20947;-73
2022/05/23 02:53:29;;;;;;;2.50;2.30;;;9.40;99.90;;;;;;7382207;19;20356;-72
2022/05/23 02:55:55;;;;;;;2.30;2.08;;;9.40;99.90;;;;;;7376411;19;20319;-73
2022/05/23 02:58:21;;;;;;;2.93;2.33;;;9.40;99.90;;;;;;7380250;19;20377;-73
2022/05/23 03:00:46;;;;;;;3.42;2.17;;;9.40;99.90;;;;;;7376615;19;21003;-75
2022/05/23 03:03:12;;;;;;;2.50;2.30;;;9.30;99.90;;;;;;7381373;19;20891;-74
2022/05/23 03:05:53;;;;;;;2.30;2.10;;;9.20;99.90;;;;;;7377678;19;20352;-72
2022/05/23 03:08:21;;;;;;;2.38;2.15;;;9.20;99.90;;;;;;7381773;19;20403;-76
2022/05/23 03:10:47;;;;;;;2.30;2.10;;;9.30;99.90;;;;;;7379316;19;20353;-74
2022/05/23 03:13:13;;;;;;;2.30;2.10;;;9.20;99.90;;;;;;7379654;19;20396;-72
2022/05/23 03:15:40;;;;;;;2.17;1.98;;;9.30;99.90;;;;;;7375084;19;21262;-72
2022/05/23 03:18:06;;;;;;;2.83;2.63;;;9.30;99.90;;;;;;7379783;19;20344;-73
2022/05/23 03:20:34;;;;;;;2.40;2.20;;;9.20;99.90;;;;;;7379534;19;20340;-72
2022/05/23 03:28:34;;;;;;;2.38;2.17;;;9.30;99.90;;;;;;7277992;19;2004403;-71
2022/05/23 03:31:00;;;;;;;2.70;2.45;;;9.30;99.90;;;;;;7379087;19;20325;-75
2022/05/23 03:33:27;;;;;;;2.47;2.28;;;9.30;99.90;;;;;;7381157;19;20340;-72
2022/05/23 03:35:54;;;;;;;4.03;2.72;;;9.30;99.90;;;;;;7373488;19;20333;-72
2022/05/23 03:38:21;;;;;;;2.90;2.40;;;9.40;99.90;;;;;;7380756;19;20912;-72
2022/05/23 03:40:47;;;;;;;3.03;2.70;;;9.40;99.90;;;;;;7377929;19;20348;-74
2022/05/23 03:43:14;;;;;;;2.72;2.40;;;9.40;99.90;;;;;;7382130;19;20331;-72
2022/05/23 03:45:40;;;;;;;2.80;2.60;;;9.40;99.90;;;;;;7373285;19;21739;-73
2022/05/23 03:48:09;;;;;;;3.38;2.20;;;9.30;99.90;;;;;;7378290;19;20337;-72
2022/05/23 03:50:35;;;;;;;2.90;2.50;;;9.30;99.90;;;;;;7377455;19;21368;-74
2022/05/23 03:53:01;;;;;;;2.33;2.17;;;9.30;99.90;;;;;;7377781;19;20388;-72
2022/05/23 03:55:29;;;;;;;2.47;2.28;;;9.30;99.90;;;;;;7373076;19;20340;-73
2022/05/23 03:58:13;;;;;;;2.65;2.30;;;9.30;99.90;;;;;;7369597;19;20895;-76
2022/05/23 04:00:43;;;;;;;2.63;2.42;;;9.30;99.90;;;;;;7368993;19;20349;-75
2022/05/23 04:03:08;;;;;;;2.65;2.45;;;9.40;99.90;;;;;;7380153;19;20332;-73
2022/05/23 04:05:34;;;;;;;2.43;2.20;;;9.50;99.90;;;;;;7374794;19;20344;-72
2022/05/23 04:08:10;;;;;;;2.42;2.22;;;9.50;99.90;;;;;;7379679;19;20374;-72
2022/05/23 04:10:40;;;;;;;2.45;2.10;;;9.60;99.90;;;;;;7375172;19;20460;-73
2022/05/23 04:13:07;;;;;;;2.60;2.40;;;9.70;99.90;;;;;;7378984;19;20365;-74
2022/05/23 04:15:33;;;;;;;2.70;2.50;;;9.70;99.90;;;;;;7372690;19;21207;-72
2022/05/23 04:17:58;;;;;;;3.13;2.85;;;9.80;99.90;;;;;;7377786;19;20349;-72
2022/05/23 04:20:24;;;;;;;2.97;2.67;;;9.90;99.90;;;;;;7376441;19;20803;-72
2022/05/23 04:23:00;;;;;;;2.67;2.42;;;10.00;99.90;;;;;;7377579;19;20340;-75
2022/05/23 04:25:26;;;;;;;3.13;2.63;;;10.00;99.90;;;;;;7374214;19;20327;-75
2022/05/23 04:27:52;;;;;;;3.75;2.90;;;10.10;99.90;;;;;;7377659;19;20333;-76
2022/05/23 04:30:18;;;;;;;3.30;2.70;;;10.20;99.90;;;;;;7373432;19;20369;-73
2022/05/23 04:35:30;;;;;;;3.40;2.97;;;10.30;99.90;;;;;;7372835;19;21135;-75
2022/05/23 04:37:58;;;;;;;3.97;3.47;;;10.40;99.90;;;;;;7376599;19;20350;-72
2022/05/23 04:40:31;;;;;;;4.35;3.63;;;10.50;99.90;;;;;;7376888;19;20329;-74
2022/05/23 04:42:59;;;;;;;4.50;2.97;;;10.60;99.90;;;;;;7379192;19;20341;-74
2022/05/23 04:45:25;;;;;;;2.65;2.45;;;10.70;99.90;;;;;;7376140;19;20349;-76
2022/05/23 04:50:51;;;;;;;3.00;2.80;;;11.00;99.90;;;;;;7376166;19;20375;-72
2022/05/23 04:53:17;;;;;;;3.63;3.25;;;11.10;99.90;;;;;;7378038;19;20340;-72
2022/05/23 04:56:04;;;;;;;3.75;3.08;;;11.30;99.90;;;;;;7374238;19;20381;-75
2022/05/23 04:58:30;;;;;;;5.00;3.00;;;11.40;99.90;;;;;;7377623;19;20365;-72
2022/05/23 05:00:59;;;;;;;2.97;2.53;;;11.50;99.90;;;;;;7370716;19;20329;-74
2022/05/23 05:03:24;;;;;;;2.53;2.23;;;11.60;99.90;;;;;;7376431;19;20363;-74
2022/05/23 05:05:50;;;;;;;3.83;3.22;;;11.80;99.90;;;;;;7370310;19;20352;-74
2022/05/23 05:08:16;;;;;;;3.03;2.80;;;11.90;99.90;;;;;;7377793;19;20358;-74
2022/05/23 05:10:45;;;;;;;3.35;2.95;;;12.00;99.90;;;;;;7373346;19;20356;-75
2022/05/23 05:13:11;;;;;;;2.97;2.78;;;12.20;99.90;;;;;;7377756;19;20356;-73
2022/05/23 05:15:37;;;;;;;3.07;2.77;;;12.30;99.90;;;;;;7373267;19;20422;-72
2022/05/23 05:18:04;;;;;;;2.90;2.70;;;12.40;99.90;;;;;;7376365;19;21057;-72
2022/05/23 05:20:34;;;;;;;2.72;2.53;;;12.50;99.90;;;;;;7373532;19;20320;-74
2022/05/23 05:23:00;;;;;;;2.87;2.63;;;12.70;99.90;;;;;;7378234;19;20337;-74
2022/05/23 05:25:43;;;;;;;2.47;2.28;;;12.80;99.90;;;;;;7269186;19;2004444;-72
2022/05/23 05:28:18;;;;;;;2.50;2.30;;;13.00;99.90;;;;;;7273349;19;2004564;-72
2022/05/23 05:30:47;;;;;;;2.55;2.08;;;13.30;99.90;;;;;;7370456;19;20412;-73
2022/05/23 05:33:15;;;;;;;2.45;2.20;;;13.50;99.90;;;;;;7376859;19;20345;-73
2022/05/23 05:35:48;;;;;;;2.15;1.95;;;13.70;99.90;;;;;;7373925;19;20356;-72
2022/05/23 05:38:30;;;;;;;4.30;2.10;;;13.90;99.90;;;;;;7275101;19;2004313;-73
2022/05/23 05:41:03;;;;;;;2.15;1.95;;;13.90;99.90;;;;;;7271575;19;2004983;-73
2022/05/23 05:43:31;;;;;;;2.30;2.10;;;13.90;99.90;;;;;;7274117;19;2004498;-72
2022/05/23 05:46:08;;;;;;;2.20;2.00;;;14.10;99.90;;;;;;7372947;19;26045;-72
2022/05/23 05:48:44;;;;;;;1.80;1.70;;;14.30;99.90;;;;;;7275320;19;2004349;-73
2022/05/23 05:51:10;;;;;;;2.00;1.80;;;14.50;99.90;;;;;;7374701;19;20942;-72
2022/05/23 05:53:41;;;;;;;2.42;1.92;;;14.70;99.90;;;;;;7376130;19;20359;-72
2022/05/23 05:56:15;;;;;;;2.55;1.98;;;14.80;99.90;;;;;;7372801;19;20356;-72
2022/05/23 05:58:41;;;;;;;2.20;1.93;;;14.90;99.90;;;;;;7375425;19;20423;-72
2022/05/23 06:01:07;;;;;;;2.67;2.00;;;15.00;99.90;;;;;;7372674;19;20332;-71
2022/05/23 06:03:34;;;;;;;2.10;1.90;;;15.10;99.90;;;;;;7374183;19;20392;-72
2022/05/23 06:11:39;;;;;;;2.90;1.95;;;15.50;99.90;;;;;;7371854;19;20344;-72
2022/05/23 06:14:25;;;;;;;2.53;2.03;;;15.60;99.90;;;;;;7373070;19;20342;-72
2022/05/23 06:16:52;;;;;;;3.40;1.80;;;15.90;99.90;;;;;;7372930;19;20379;-73
2022/05/23 06:19:43;;;;;;;2.15;1.92;;;16.10;99.90;;;;;;7380421;19;21048;-72
2022/05/23 06:22:15;;;;;;;2.50;2.13;;;16.30;99.90;;;;;;7379579;19;20343;-72
2022/05/23 06:24:53;;;;;;;2.67;2.05;;;16.40;99.90;;;;;;7379266;19;20308;-72
2022/05/23 06:27:20;;;;;;;3.65;1.98;;;16.40;99.90;;;;;;7380632;19;20700;-72
2022/05/23 06:30:07;;;;;;;2.70;1.88;;;16.60;99.90;;;;;;7380586;19;20345;-73
2022/05/23 06:32:41;;;;;;;2.07;1.83;;;16.70;99.90;;;;;;7381398;19;20355;-72
2022/05/23 06:35:07;;;;;;;3.28;1.75;;;16.90;99.90;;;;;;7376175;19;20356;-72
2022/05/23 06:37:36;;;;;;;1.90;1.70;;;17.00;99.90;;;;;;7381010;19;20896;-72
2022/05/23 06:40:23;;;;;;;2.10;1.90;;;17.30;99.90;;;;;;7275572;19;2004657;-72
2022/05/23 06:43:08;;;;;;;3.07;2.00;;;17.40;99.90;;;;;;7380275;19;20377;-71
2022/05/23 06:45:53;;;;;;;2.43;1.80;;;17.40;99.90;;;;;;7377104;19;20323;-72
2022/05/23 06:48:42;;;;;;;4.30;1.50;;;17.50;99.90;;;;;;7276931;19;2005302;-73
2022/05/23 06:51:16;;;;;;;2.75;1.77;;;17.70;99.90;;;;;;7377720;19;20321;-72
2022/05/23 06:53:45;;;;;;;2.03;1.77;;;17.70;99.90;;;;;;7380482;19;20396;-72
2022/05/23 06:56:28;;;;;;;1.60;1.45;;;17.90;99.90;;;;;;7274053;19;2004363;-72
2022/05/23 06:58:59;;;;;;;1.30;1.20;;;18.00;99.90;;;;;;7379907;19;20321;-71
2022/05/23 07:01:33;;;;;;;1.43;1.33;;;18.30;99.90;;;;;;7377952;19;20352;-73
2022/05/23 07:04:21;;;;;;;1.30;1.20;;;18.60;99.90;;;;;;7277261;19;2004278;-73
2022/05/23 07:12:29;;;;;;;3.10;1.30;;;18.80;99.90;;;;;;7278572;19;2004384;-72
2022/05/23 07:14:59;;;;;;;1.48;1.27;;;18.60;99.90;;;;;;7374693;19;20408;-73
2022/05/23 07:17:27;;;;;;;1.50;1.30;;;18.60;99.90;;;;;;7379936;19;20323;-73
2022/05/23 07:20:11;;;;;;;1.25;1.20;;;18.80;99.90;;;;;;7277017;19;2004473;-72
2022/05/23 07:22:38;;;;;;;1.38;1.27;;;19.20;99.90;;;;;;7377650;19;20413;-72
2022/05/23 07:25:06;;;;;;;1.30;1.20;;;19.50;99.90;;;;;;7374953;19;20413;-72
2022/05/23 07:27:32;;;;;;;1.20;1.10;;;19.90;99.90;;;;;;7377877;19;20360;-72
2022/05/23 07:29:58;;;;;;;1.33;1.23;;;20.10;99.90;;;;;;7378410;19;20341;-73
2022/05/23 07:32:26;;;;;;;1.65;1.45;;;20.30;99.90;;;;;;7375474;19;20344;-74
2022/05/23 07:34:52;;;;;;;1.30;1.20;;;20.20;99.90;;;;;;7375248;19;20340;-73
2022/05/23 07:37:18;;;;;;;1.40;1.30;;;20.00;99.90;;;;;;7376922;19;20697;-74
2022/05/23 07:39:44;;;;;;;1.30;1.20;;;20.20;99.90;;;;;;7375574;19;20341;-73
2022/05/23 07:42:29;;;;;;;1.10;1.10;;;20.20;99.90;;;;;;7374832;19;20356;-73
2022/05/23 07:44:56;;;;;;;2.08;1.05;;;20.30;99.90;;;;;;7375270;19;20407;-73
2022/05/23 07:47:22;;;;;;;1.30;1.20;;;20.30;99.90;;;;;;7376295;19;20960;-73
2022/05/23 07:50:07;;;;;;;1.90;1.25;;;20.60;99.90;;;;;;7276257;19;2004379;-73
2022/05/23 07:52:33;;;;;;;1.45;1.27;;;20.50;99.90;;;;;;7376717;19;20346;-72
2022/05/23 08:00:38;;;;;;;2.17;1.30;;;20.80;99.90;;;;;;7273310;19;2004470;-72
2022/05/23 08:03:16;;;;;;;1.05;1.05;;;20.90;99.90;;;;;;7378188;19;20337;-73
2022/05/23 08:05:44;;;;;;;2.88;1.50;;;20.90;99.90;;;;;;7374342;19;20946;-73
2022/05/23 08:08:10;;;;;;;1.13;1.02;;;21.10;99.90;;;;;;7377104;19;20363;-72
2022/05/23 08:10:36;;;;;;;2.33;1.65;;;21.20;99.90;;;;;;7376315;19;20420;-75
2022/05/23 08:13:08;;;;;;;2.73;1.53;;;20.90;99.90;;;;;;7377773;19;20421;-73
2022/05/23 08:15:39;;;;;;;1.20;1.10;;;21.20;99.90;;;;;;7353555;19;20324;-74
2022/05/23 08:18:09;;;;;;;1.80;1.30;;;21.50;99.90;;;;;;7377321;19;20337;-74
2022/05/23 08:20:40;;;;;;;1.30;1.20;;;21.70;99.90;;;;;;7373726;19;21153;-73
2022/05/23 08:23:06;;;;;;;0.98;0.98;;;21.90;99.90;;;;;;7376887;19;20349;-73
2022/05/23 08:25:52;;;;;;;1.30;1.20;;;21.80;99.90;;;;;;7267849;19;2004407;-73
2022/05/23 08:28:18;;;;;;;0.93;0.90;;;21.70;99.80;;;;;;7376380;19;20316;-73
2022/05/23 08:30:44;;;;;;;1.20;0.90;;;21.80;99.90;;;;;;7374383;19;20340;-73
2022/05/23 08:33:19;;;;;;;1.30;1.20;;;21.70;97.10;;;;;;7378893;19;20701;-75
2022/05/23 08:35:48;;;;;;;1.10;1.08;;;22.10;98.40;;;;;;7371063;19;20341;-73
2022/05/23 08:38:16;;;;;;;1.10;0.90;;;22.20;95.80;;;;;;7376942;19;20316;-75
2022/05/23 08:41:12;;;;;;;1.50;1.10;;;22.30;95.80;;;;;;7371540;19;20305;-75
2022/05/23 08:43:51;;;;;;;1.05;1.05;;;22.00;94.50;;;;;;7274380;19;2004395;-77
2022/05/23 08:46:26;;;;;;;0.90;0.90;;;21.90;95.10;;;;;;7373104;19;20880;-74
2022/05/23 08:49:02;;;;;;;1.48;1.10;;;22.40;94.70;;;;;;7274271;19;2004409;-74
2022/05/23 08:51:45;;;;;;;1.33;1.20;;;22.00;93.30;;;;;;7374531;19;20348;-74
2022/05/23 08:54:27;;;;;;;1.50;1.00;;;21.60;93.10;;;;;;7376948;19;20360;-72
2022/05/23 08:57:21;;;;;;;1.25;1.15;;;21.80;93.30;;;;;;7273341;19;2004989;-73
2022/05/23 08:59:48;;;;;;;1.60;1.30;;;21.80;92.70;;;;;;7376929;19;20384;-73
2022/05/23 09:02:29;;;;;;;0.95;0.95;;;21.90;92.60;;;;;;7373560;19;20409;-73
2022/05/23 09:04:57;;;;;;;1.98;1.10;;;22.00;92.10;;;;;;7373489;19;20349;-73
2022/05/23 09:07:47;;;;;;;0.80;0.80;;;21.90;90.80;;;;;;7374603;19;20349;-73
2022/05/23 09:10:27;;;;;;;1.75;1.08;;;21.90;90.50;;;;;;7374954;19;20348;-74
2022/05/23 09:12:53;;;;;;;0.88;0.88;;;22.60;92.20;;;;;;7375069;19;21140;-74
2022/05/23 09:15:20;;;;;;;1.20;1.10;;;22.60;90.70;;;;;;7371297;19;20347;-73
2022/05/23 09:17:58;;;;;;;1.20;1.10;;;22.80;90.40;;;;;;7375590;19;20308;-73
2022/05/23 09:20:38;;;;;;;1.90;1.10;;;22.90;91.30;;;;;;7372849;19;20341;-75
2022/05/23 09:23:06;;;;;;;1.80;1.00;;;23.10;90.10;;;;;;7374175;19;20357;-74
2022/05/23 09:25:31;;;;;;;1.33;1.23;;;23.50;89.60;;;;;;7375425;19;20320;-74
2022/05/23 09:28:05;;;;;;;0.90;0.90;;;23.70;86.80;;;;;;7378974;19;20363;-73
2022/05/23 09:30:31;;;;;;;1.40;1.05;;;23.50;85.60;;;;;;7374028;19;20993;-73
2022/05/23 09:33:00;;;;;;;2.23;1.10;;;23.80;87.40;;;;;;7376486;19;20850;-73
2022/05/23 09:35:27;;;;;;;1.20;1.10;;;24.10;86.40;;;;;;7371343;19;20722;-74
2022/05/23 09:38:15;;;;;;;1.20;1.10;;;23.70;83.00;;;;;;7374797;19;20424;-75
2022/05/23 09:40:55;;;;;;;1.05;0.95;;;23.30;85.00;;;;;;7267883;19;2004828;-74
2022/05/23 09:49:30;;;;;;;0.90;0.90;;;24.30;85.50;;;;;;7374894;19;20431;-74
2022/05/23 09:52:02;;;;;;;1.50;0.97;;;23.60;79.80;;;;;;7272094;19;2004412;-74
2022/05/23 09:54:48;;;;;;;2.25;1.30;;;24.30;85.60;;;;;;7376700;19;20767;-75
2022/05/23 09:57:36;;;;;;;1.00;1.00;;;24.50;82.70;;;;;;7279080;19;2004684;-74
2022/05/23 10:00:10;;;;;;;1.00;1.00;;;24.60;81.60;;;;;;7380440;19;20352;-74
2022/05/23 10:03:01;;;;;;;1.20;1.10;;;24.90;82.00;;;;;;7380221;19;20370;-74
2022/05/23 10:05:34;;;;;;;1.00;1.00;;;25.10;79.80;;;;;;7276756;19;2004578;-74
2022/05/23 10:08:12;;;;;;;1.52;1.10;;;24.90;79.90;;;;;;7282681;19;2004441;-73
2022/05/23 10:10:39;;;;;;;1.60;1.10;;;24.80;79.50;;;;;;7381624;19;20411;-73
2022/05/23 10:13:36;;;;;;;1.60;1.08;;;24.90;80.20;;;;;;7381803;19;20316;-74
2022/05/23 10:16:16;;;;;;;1.30;1.20;;;25.00;78.20;;;;;;7273556;19;2004197;-75
2022/05/23 10:19:12;;;;;;;1.50;1.00;;;25.70;80.20;;;;;;7278920;19;2004358;-75
2022/05/23 10:21:39;;;;;;;1.10;0.90;;;25.30;80.70;;;;;;7334462;19;20320;-74
2022/05/23 10:24:10;;;;;;;1.00;1.00;;;25.70;78.00;;;;;;7379450;19;21068;-74
2022/05/23 10:26:50;;;;;;;3.70;1.10;;;25.20;74.40;;;;;;7380890;19;20333;-74
2022/05/23 10:29:22;;;;;;;1.80;1.00;;;25.00;77.10;;;;;;7380155;19;20348;-74
2022/05/23 10:32:11;;;;;;;1.40;1.25;;;25.30;78.40;;;;;;7378825;19;20336;-74
2022/05/23 10:34:38;;;;;;;2.33;1.07;;;25.40;77.90;;;;;;7378512;19;20324;-74
2022/05/23 10:37:08;;;;;;;1.08;0.98;;;25.20;76.40;;;;;;7376698;19;20333;-73
2022/05/23 10:42:32;;;;;;;0.90;0.90;;;25.20;77.40;;;;;;7274017;19;2004353;-73
2022/05/23 10:45:19;;;;;;;1.00;1.00;;;25.30;79.30;;;;;;7271256;19;2019922;-73
2022/05/23 10:48:10;;;;;;;1.13;1.00;;;25.20;75.60;;;;;;7378731;19;20355;-73
2022/05/23 10:50:54;;;;;;;1.10;0.93;;;25.40;78.50;;;;;;7380850;19;20333;-73
2022/05/23 10:53:37;;;;;;;1.10;1.00;;;25.90;78.70;;;;;;7278884;19;2004459;-73
2022/05/23 10:56:26;;;;;;;1.10;1.08;;;25.80;74.60;;;;;;7277333;19;2004576;-73
2022/05/23 10:59:18;;;;;;;0.80;0.80;;;25.40;75.30;;;;;;7382156;19;20855;-74
2022/05/23 11:01:53;;;;;;;1.30;1.20;;;25.30;74.40;;;;;;7277157;19;2004354;-73
2022/05/23 11:04:25;;;;;;;1.83;1.20;;;25.10;72.80;;;;;;7275941;19;2020254;-73
2022/05/23 11:06:59;;;;;;;5.10;1.00;;;25.00;73.10;;;;;;7277930;19;2004366;-73
2022/05/23 11:09:52;;;;;;;1.00;1.00;;;25.00;72.20;;;;;;7381367;19;20345;-73
2022/05/23 11:12:22;;;;;;;1.17;1.08;;;24.80;75.00;;;;;;7276107;19;2004458;-73
2022/05/23 11:15:03;;;;;;;2.60;1.13;;;25.10;74.70;;;;;;7379545;19;20332;-73
2022/05/23 11:17:53;;;;;;;1.80;1.00;;;25.20;73.60;;;;;;7278564;19;2004554;-73
2022/05/23 11:20:24;;;;;;;2.10;0.93;;;24.80;73.40;;;;;;7279262;19;2004743;-73
2022/05/23 11:22:58;;;;;;;1.23;1.13;;;24.10;71.70;;;;;;7381166;19;20357;-73
2022/05/23 11:25:32;;;;;;;1.30;1.10;;;23.90;74.00;;;;;;7378386;19;20315;-73
2022/05/23 11:34:10;;;;;;;1.00;1.00;;;24.60;74.50;;;;;;7381689;19;20336;-73
2022/05/23 11:36:56;;;;;;;0.80;0.80;;;25.20;76.20;;;;;;7379053;19;21023;-73
2022/05/23 11:39:48;;;;;;;1.08;0.95;;;25.30;73.20;;;;;;7380108;19;20336;-74
2022/05/23 11:42:40;;;;;;;1.73;1.08;;;25.50;75.90;;;;;;7277562;19;2004566;-73
2022/05/23 11:47:53;;;;;;;1.00;1.00;;;26.50;74.70;;;;;;7279066;19;2004347;-73
2022/05/23 11:50:29;;;;;;;1.02;0.93;;;26.90;69.10;;;;;;7374550;19;20419;-73
2022/05/23 11:53:23;;;;;;;1.70;1.30;;;27.00;68.60;;;;;;7379659;19;21036;-74
2022/05/23 11:55:55;;;;;;;1.02;1.00;;;27.10;68.50;;;;;;7273595;19;2004386;-74
2022/05/23 11:58:41;;;;;;;1.97;1.10;;;27.60;67.60;;;;;;7382708;19;20355;-74
2022/05/23 12:01:13;;;;;;;2.20;1.20;;;27.90;68.30;;;;;;7272848;19;2004496;-73
2022/05/23 12:03:51;;;;;;;1.23;1.08;;;27.60;67.60;;;;;;7379400;19;20315;-74
2022/05/23 12:06:29;;;;;;;2.00;1.15;;;27.40;63.00;;;;;;7271584;19;2006900;-73
2022/05/23 12:08:57;;;;;;;1.17;1.10;;;28.50;69.00;;;;;;7273549;19;2008408;-73
2022/05/23 12:11:38;;;;;;;1.17;1.10;;;28.20;61.50;;;;;;7376230;19;20499;-74
2022/05/23 12:14:42;;;;;;;1.40;1.10;;;28.90;65.60;;;;;;7272991;19;2004381;-74
2022/05/23 12:17:12;;;;;;;4.75;1.20;;;29.30;68.70;;;;;;7272324;19;2004371;-74
2022/05/23 12:19:38;;;;;;;1.70;1.10;;;29.80;64.30;;;;;;7377490;19;20750;-74
2022/05/23 12:22:24;;;;;;;1.75;1.00;;;28.60;62.10;;;;;;7377233;19;21317;-75
2022/05/23 12:25:08;;;;;;;1.27;1.17;;;28.50;65.70;;;;;;7377642;19;20320;-76
2022/05/23 12:27:44;;;;;;;4.20;1.35;;;29.00;63.10;;;;;;7379632;19;20317;-75
2022/05/23 12:30:20;;;;;;;1.10;1.10;;;29.20;62.80;;;;;;7378894;19;20758;-75
2022/05/23 12:32:56;;;;;;;1.38;1.10;;;28.70;57.90;;;;;;7380296;19;20347;-75
2022/05/23 12:35:40;;;;;;;1.35;1.10;;;27.60;58.90;;;;;;7380194;19;20364;-74
2022/05/23 12:38:22;;;;;;;1.73;1.00;;;27.00;62.40;;;;;;7381241;19;20962;-74
2022/05/23 12:41:15;;;;;;;1.50;1.13;;;26.60;60.70;;;;;;7376232;19;20339;-74
2022/05/23 12:44:07;;;;;;;1.08;1.00;;;26.70;63.50;;;;;;7275713;19;2004380;-74
2022/05/23 12:46:48;;;;;;;0.82;0.82;;;26.50;62.10;;;;;;7376794;19;20404;-74
2022/05/23 12:49:26;;;;;;;1.33;1.00;;;27.10;64.10;;;;;;7378512;19;20374;-74
2022/05/23 12:52:01;;;;;;;1.75;1.05;;;27.60;62.60;;;;;;7274565;19;2004416;-73
2022/05/23 12:54:33;;;;;;;1.00;1.00;;;28.30;61.50;;;;;;7377461;19;20914;-74
2022/05/23 12:57:06;;;;;;;0.90;0.90;;;28.80;62.20;;;;;;7374762;19;20424;-74
2022/05/23 12:59:42;;;;;;;1.20;1.10;;;28.60;60.30;;;;;;7379338;19;20343;-75
2022/05/23 13:02:11;;;;;;;2.40;1.10;;;28.60;59.90;;;;;;7372498;19;20377;-75
2022/05/23 13:04:47;;;;;;;0.88;0.88;;;28.30;57.50;;;;;;7375086;19;20335;-75
2022/05/23 13:07:17;;;;;;;1.30;1.20;;;28.50;60.00;;;;;;7376220;19;20859;-74
2022/05/23 13:09:46;;;;;;;1.38;1.08;;;28.50;59.90;;;;;;7374976;19;20916;-74
2022/05/23 13:12:31;;;;;;;2.25;1.30;;;28.40;60.20;;;;;;7371726;19;20420;-76
2022/05/23 13:14:58;;;;;;;2.63;1.23;;;27.70;58.00;;;;;;7369960;19;21158;-76
2022/05/23 13:17:38;;;;;;;1.23;1.00;;;27.10;60.10;;;;;;7376372;19;20879;-76
2022/05/23 13:23:17;;;;;;;9.83;4.43;;;27.10;62.00;;;;;;7274097;19;2004987;-75
2022/05/23 13:25:43;;;;;;;2.30;1.65;;;26.80;60.30;;;;;;7373206;19;20360;-75
2022/05/23 13:28:10;;;;;;;2.20;1.27;;;26.60;61.60;;;;;;7373382;19;21305;-76
2022/05/23 13:30:37;;;;;;;1.10;1.05;;;26.80;60.50;;;;;;7374474;19;20341;-76
2022/05/23 13:33:06;;;;;;;3.30;2.20;;;26.90;62.80;;;;;;7376704;19;20329;-74
2022/05/23 13:35:32;;;;;;;4.20;1.90;;;27.30;62.60;;;;;;7374989;19;20882;-74
2022/05/23 13:38:18;;;;;;;6.97;2.27;;;27.50;61.60;;;;;;7377307;19;20356;-75
2022/05/23 13:40:46;;;;;;;1.20;1.08;;;27.50;61.40;;;;;;7272091;19;2004426;-75
2022/05/23 13:43:31;;;;;;;1.38;1.23;;;26.90;58.00;;;;;;7374694;19;20349;-75
2022/05/23 13:46:13;;;;;;;2.40;1.20;;;27.30;62.60;;;;;;7271409;19;2004565;-75
2022/05/23 13:48:46;;;;;;;2.70;1.50;;;28.00;63.60;;;;;;7273583;19;2019964;-75
2022/05/23 13:51:20;;;;;;;1.08;1.05;;;27.80;60.00;;;;;;7374525;19;20330;-74
2022/05/23 13:53:50;;;;;;;1.33;1.23;;;28.40;63.10;;;;;;7376742;19;20313;-76
2022/05/23 13:56:16;;;;;;;1.40;1.10;;;28.80;57.60;;;;;;7373787;19;20343;-74
2022/05/23 13:58:50;;;;;;;2.50;1.20;;;28.90;58.20;;;;;;7376697;19;20340;-74
2022/05/23 14:01:26;;;;;;;1.35;1.20;;;29.30;57.70;;;;;;7371482;19;20389;-74
2022/05/23 14:04:05;;;;;;;1.37;1.27;;;29.70;58.50;;;;;;7272123;19;2004309;-75
2022/05/23 14:06:35;;;;;;;1.30;1.00;;;30.10;57.00;;;;;;7273039;19;2004238;-75
2022/05/23 14:09:02;;;;;;;1.20;1.10;;;30.60;57.00;;;;;;7377996;19;20384;-75
2022/05/23 14:11:48;;;;;;;2.25;1.30;;;30.20;54.50;;;;;;7372015;19;20344;-75
2022/05/23 14:14:29;;;;;;;2.85;1.40;;;29.80;54.40;;;;;;7374589;19;22888;-75